sensor_id;sensor_type;location;lat;lon;timestamp;temperature;humidity
67641;SHT31;54434;50.096;20.082;2022-07-23T15:38:12;24.93;66.85
67641;SHT31;54434;50.096;20.082;2022-07-23T15:40:57;23.85;69.89
67641;SHT31;54434;50.096;20.082;2022-07-23T15:43:34;23.20;72.41
67641;SHT31;54434;50.096;20.082;2022-07-23T15:46:11;22.85;73.65
67641;SHT31;54434;50.096;20.082;2022-07-23T15:48:57;22.55;74.05
67641;SHT31;54434;50.096;20.082;2022-07-23T15:51:35;22.50;73.58
67641;SHT31;54434;50.096;20.082;2022-07-23T15:54:11;22.44;73.58
67641;SHT31;54434;50.096;20.082;2022-07-23T15:56:48;22.43;73.49
67641;SHT31;54434;50.096;20.082;2022-07-23T15:59:24;22.41;74.44
67641;SHT31;54434;50.096;20.082;2022-07-23T16:02:01;22.35;75.83
67641;SHT31;54434;50.096;20.082;2022-07-23T16:04:39;22.31;75.59
67641;SHT31;54434;50.096;20.082;2022-07-23T16:07:16;22.30;75.75
67641;SHT31;54434;50.096;20.082;2022-07-23T16:09:53;22.32;74.90
67641;SHT31;54434;50.096;20.082;2022-07-23T16:12:30;22.36;76.11
67641;SHT31;54434;50.096;20.082;2022-07-23T16:15:08;22.35;75.94
67641;SHT31;54434;50.096;20.082;2022-07-23T16:17:45;22.36;76.51
67641;SHT31;54434;50.096;20.082;2022-07-23T16:20:22;22.35;76.50
67641;SHT31;54434;50.096;20.082;2022-07-23T16:22:58;22.31;76.91
67641;SHT31;54434;50.096;20.082;2022-07-23T16:25:36;22.33;77.47
67641;SHT31;54434;50.096;20.082;2022-07-23T16:28:14;22.33;77.90
67641;SHT31;54434;50.096;20.082;2022-07-23T16:30:50;22.26;78.12
67641;SHT31;54434;50.096;20.082;2022-07-23T16:33:27;22.25;78.49
67641;SHT31;54434;50.096;20.082;2022-07-23T16:36:04;22.21;80.83
67641;SHT31;54434;50.096;20.082;2022-07-23T16:38:42;22.13;81.26
67641;SHT31;54434;50.096;20.082;2022-07-23T16:41:18;22.13;80.43
67641;SHT31;54434;50.096;20.082;2022-07-23T16:43:55;22.24;79.65
67641;SHT31;54434;50.096;20.082;2022-07-23T16:46:31;22.34;79.85
67641;SHT31;54434;50.096;20.082;2022-07-23T16:49:09;22.41;80.14
67641;SHT31;54434;50.096;20.082;2022-07-23T16:51:45;22.52;80.00
67641;SHT31;54434;50.096;20.082;2022-07-23T16:54:22;22.65;78.54
67641;SHT31;54434;50.096;20.082;2022-07-23T16:56:59;22.78;78.15
67641;SHT31;54434;50.096;20.082;2022-07-23T16:59:36;22.87;77.48
67641;SHT31;54434;50.096;20.082;2022-07-23T17:02:12;22.95;76.51
67641;SHT31;54434;50.096;20.082;2022-07-23T17:04:49;23.04;75.69
67641;SHT31;54434;50.096;20.082;2022-07-23T17:07:26;23.15;75.62
67641;SHT31;54434;50.096;20.082;2022-07-23T17:10:02;23.23;75.97
67641;SHT31;54434;50.096;20.082;2022-07-23T17:12:42;23.32;75.66
67641;SHT31;54434;50.096;20.082;2022-07-23T17:15:22;23.40;76.38
67641;SHT31;54434;50.096;20.082;2022-07-23T17:17:58;23.40;76.02
67641;SHT31;54434;50.096;20.082;2022-07-23T17:20:36;23.37;76.09
67641;SHT31;54434;50.096;20.082;2022-07-23T17:23:12;23.41;76.47
67641;SHT31;54434;50.096;20.082;2022-07-23T17:25:49;23.41;76.12
67641;SHT31;54434;50.096;20.082;2022-07-23T17:28:26;23.37;75.90
67641;SHT31;54434;50.096;20.082;2022-07-23T17:31:03;23.35;75.38
67641;SHT31;54434;50.096;20.082;2022-07-23T17:33:39;23.34;74.94
67641;SHT31;54434;50.096;20.082;2022-07-23T17:36:16;23.30;74.70
67641;SHT31;54434;50.096;20.082;2022-07-23T17:38:53;23.27;74.50
67641;SHT31;54434;50.096;20.082;2022-07-23T17:41:36;23.26;74.69
67641;SHT31;54434;50.096;20.082;2022-07-23T17:44:19;23.21;74.33
67641;SHT31;54434;50.096;20.082;2022-07-23T17:46:56;23.16;74.46
67641;SHT31;54434;50.096;20.082;2022-07-23T17:49:32;23.13;74.41
67641;SHT31;54434;50.096;20.082;2022-07-23T17:52:08;23.11;74.30
67641;SHT31;54434;50.096;20.082;2022-07-23T17:54:45;23.07;74.82
67641;SHT31;54434;50.096;20.082;2022-07-23T17:57:21;23.02;75.21
67641;SHT31;54434;50.096;20.082;2022-07-23T18:00:00;23.00;75.36
67641;SHT31;54434;50.096;20.082;2022-07-23T18:02:40;23.04;75.71
67641;SHT31;54434;50.096;20.082;2022-07-23T18:05:16;23.03;75.87
67641;SHT31;54434;50.096;20.082;2022-07-23T18:07:53;23.00;76.02
67641;SHT31;54434;50.096;20.082;2022-07-23T18:10:31;22.84;76.62
67641;SHT31;54434;50.096;20.082;2022-07-23T18:13:08;22.59;77.68
67641;SHT31;54434;50.096;20.082;2022-07-23T18:15:45;22.50;77.39
67641;SHT31;54434;50.096;20.082;2022-07-23T18:18:21;22.50;77.33
67641;SHT31;54434;50.096;20.082;2022-07-23T18:20:59;22.50;77.89
67641;SHT31;54434;50.096;20.082;2022-07-23T18:23:36;22.41;78.07
67641;SHT31;54434;50.096;20.082;2022-07-23T18:26:13;22.31;78.37
67641;SHT31;54434;50.096;20.082;2022-07-23T18:28:50;22.24;78.84
67641;SHT31;54434;50.096;20.082;2022-07-23T18:31:27;22.18;79.32
67641;SHT31;54434;50.096;20.082;2022-07-23T18:34:03;22.08;80.43
67641;SHT31;54434;50.096;20.082;2022-07-23T18:36:41;22.00;80.32
67641;SHT31;54434;50.096;20.082;2022-07-23T18:39:17;22.01;80.21
67641;SHT31;54434;50.096;20.082;2022-07-23T18:41:55;22.02;80.09
67641;SHT31;54434;50.096;20.082;2022-07-23T18:44:34;22.05;79.96
67641;SHT31;54434;50.096;20.082;2022-07-23T18:47:10;22.07;79.81
67641;SHT31;54434;50.096;20.082;2022-07-23T18:49:47;22.08;80.03
67641;SHT31;54434;50.096;20.082;2022-07-23T18:52:23;22.07;80.49
67641;SHT31;54434;50.096;20.082;2022-07-23T18:55:00;22.03;80.82
